createdAt,value
2023-04-12T00:00:55.030Z,7.38
2023-04-12T00:01:56.843Z,8.43
2023-04-12T00:02:58.649Z,7.60
2023-04-12T00:04:00.805Z,8.15
2023-04-12T00:05:02.914Z,8.15
2023-04-12T00:06:04.848Z,7.70
2023-04-12T00:07:06.621Z,8.23
2023-04-12T00:08:08.352Z,7.85
2023-04-12T00:09:10.052Z,7.97
2023-04-12T00:10:11.715Z,7.65
2023-04-12T00:11:13.365Z,7.65
2023-04-12T00:12:15.109Z,8.25
2023-04-12T00:13:16.764Z,8.48
2023-04-12T00:14:18.489Z,8.13
2023-04-12T00:15:20.232Z,8.23
2023-04-12T00:16:22.123Z,7.70
2023-04-12T00:17:23.978Z,8.40
2023-04-12T00:18:26.201Z,7.95
2023-04-12T00:19:28.088Z,8.47
2023-04-12T00:20:29.764Z,8.50
2023-04-12T00:21:31.506Z,7.97
2023-04-12T00:22:33.270Z,8.07
2023-04-12T00:23:34.924Z,8.10
2023-04-12T00:24:40.059Z,8.05
2023-04-12T00:25:41.728Z,8.48
2023-04-12T00:26:43.312Z,8.40
2023-04-12T00:27:45.067Z,8.07
2023-04-12T00:28:46.728Z,8.57
2023-04-12T00:29:48.455Z,7.77
2023-04-12T00:30:50.088Z,8.32
2023-04-12T00:31:51.829Z,8.40
2023-04-12T00:32:53.638Z,8.88
2023-04-12T00:33:55.707Z,8.88
2023-04-12T00:34:57.583Z,9.10
2023-04-12T00:35:59.349Z,10.13
2023-04-12T00:37:02.069Z,8.65
2023-04-12T00:38:03.834Z,8.43
2023-04-12T00:39:05.559Z,8.02
2023-04-12T00:40:08.924Z,8.63
2023-04-12T00:41:10.630Z,8.82
2023-04-12T00:42:12.435Z,8.23
2023-04-12T00:43:14.122Z,8.75
2023-04-12T00:44:15.756Z,8.07
2023-04-12T00:45:17.447Z,8.48
2023-04-12T00:46:19.733Z,9.02
2023-04-12T00:47:21.499Z,8.20
2023-04-12T00:48:24.783Z,8.93
2023-04-12T00:49:29.909Z,7.95
2023-04-12T00:50:31.626Z,7.87
2023-04-12T00:51:33.275Z,8.00
2023-04-12T00:52:35.297Z,7.53
2023-04-12T00:53:38.250Z,8.00
2023-04-12T00:54:40.710Z,9.10
2023-04-12T00:55:44.749Z,8.23
2023-04-12T00:56:46.677Z,8.27
2023-04-12T00:57:48.407Z,8.40
2023-04-12T00:58:50.093Z,8.77
2023-04-12T00:59:51.752Z,9.00
2023-04-12T01:00:53.535Z,9.37
2023-04-12T01:01:56.681Z,8.43
2023-04-12T01:02:58.629Z,9.68
2023-04-12T01:04:00.580Z,8.65
2023-04-12T01:05:02.809Z,9.05
2023-04-12T01:06:16.374Z,9.10
2023-04-12T01:07:47.864Z,8.48
2023-04-12T01:09:07.215Z,8.13
2023-04-12T01:10:27.328Z,7.78
2023-04-12T01:11:44.759Z,8.98
2023-04-12T01:13:09.651Z,8.50
2023-04-12T01:14:13.398Z,7.68
2023-04-12T01:15:16.991Z,7.93
2023-04-12T01:16:42.052Z,8.18
2023-04-12T01:18:06.097Z,7.45
2023-04-12T01:19:32.427Z,7.55
2023-04-12T01:21:03.440Z,7.50
2023-04-12T01:22:27.745Z,7.82
2023-04-12T01:23:59.014Z,8.32
2023-04-12T01:25:10.975Z,7.85
2023-04-12T01:26:26.699Z,7.50
2023-04-12T01:27:45.537Z,8.27
2023-04-12T01:28:52.049Z,9.05
2023-04-12T01:29:56.353Z,7.55
2023-04-12T01:31:00.686Z,8.05
2023-04-12T01:32:04.499Z,8.55
2023-04-12T01:33:10.388Z,7.78
2023-04-12T01:34:13.911Z,8.52
2023-04-12T01:35:17.479Z,8.32
2023-04-12T01:36:22.795Z,7.65
2023-04-12T01:37:25.239Z,8.30
2023-04-12T01:38:27.784Z,8.65
2023-04-12T01:39:30.598Z,8.50
2023-04-12T01:40:32.444Z,8.73
2023-04-12T01:41:39.824Z,9.15
2023-04-12T01:42:41.548Z,8.35
2023-04-12T01:43:44.685Z,8.68
2023-04-12T01:44:46.857Z,8.95
2023-04-12T01:45:48.678Z,8.70
2023-04-12T01:46:50.913Z,8.75
2023-04-12T01:47:52.640Z,9.50
2023-04-12T01:48:56.490Z,8.93
2023-04-12T01:50:37.140Z,9.60
2023-04-12T01:52:23.587Z,8.55
2023-04-12T01:53:45.824Z,8.00
2023-04-12T01:54:51.226Z,8.50
2023-04-12T01:55:59.816Z,8.88
2023-04-12T01:57:04.340Z,8.45
2023-04-12T01:58:07.666Z,9.27
2023-04-12T01:59:12.912Z,8.70
2023-04-12T02:00:17.044Z,9.87
2023-04-12T02:01:19.649Z,8.65
2023-04-12T02:02:22.045Z,9.65
2023-04-12T02:03:24.605Z,10.43
2023-04-12T02:04:27.749Z,9.35
2023-04-12T02:05:29.778Z,10.52
2023-04-12T02:06:33.206Z,11.05
2023-04-12T02:07:35.663Z,12.80
2023-04-12T02:08:37.795Z,15.18
2023-04-12T02:09:40.058Z,12.60
2023-04-12T02:10:41.865Z,11.73
2023-04-12T02:11:47.376Z,11.65
2023-04-12T02:12:49.174Z,11.75
2023-04-12T02:13:50.921Z,11.00
2023-04-12T02:14:52.730Z,14.20
2023-04-12T02:15:55.053Z,11.32
2023-04-12T02:16:57.040Z,11.73
2023-04-12T02:17:58.930Z,10.52
2023-04-12T02:19:00.715Z,9.25
2023-04-12T02:20:04.272Z,10.35
2023-04-12T02:21:06.660Z,9.70
2023-04-12T02:22:08.444Z,9.82
2023-04-12T02:23:10.228Z,9.05
2023-04-12T02:24:13.070Z,10.18
2023-04-12T02:25:15.845Z,9.52
2023-04-12T02:26:17.686Z,9.85
2023-04-12T02:27:19.469Z,9.38
2023-04-12T02:28:21.192Z,9.38
2023-04-12T02:29:22.948Z,9.60
2023-04-12T02:30:24.789Z,9.52
2023-04-12T02:31:26.655Z,10.37
2023-04-12T02:32:28.436Z,12.90
2023-04-12T02:33:30.278Z,10.65
2023-04-12T02:34:32.049Z,10.82
2023-04-12T02:35:33.849Z,10.40
2023-04-12T02:36:35.645Z,9.73
2023-04-12T02:37:37.455Z,10.45
2023-04-12T02:38:39.248Z,10.13
2023-04-12T02:39:41.068Z,11.43
2023-04-12T02:40:42.965Z,10.05
2023-04-12T02:41:45.535Z,10.50
2023-04-12T02:42:47.323Z,9.48
2023-04-12T02:43:49.263Z,11.50
2023-04-12T02:44:50.983Z,11.45
2023-04-12T02:45:52.797Z,10.45
2023-04-12T02:46:54.629Z,10.05
2023-04-12T02:47:56.389Z,10.27
2023-04-12T02:48:58.222Z,10.88
2023-04-12T02:49:59.951Z,11.20
2023-04-12T02:51:01.699Z,9.35
2023-04-12T02:52:03.989Z,10.63
2023-04-12T02:53:05.768Z,11.35
2023-04-12T02:54:07.553Z,10.90
2023-04-12T02:55:09.860Z,11.07
2023-04-12T02:56:11.640Z,11.38
2023-04-12T02:57:13.448Z,11.27
2023-04-12T02:58:15.209Z,12.00
2023-04-12T02:59:16.950Z,11.52
2023-04-12T03:00:18.718Z,12.05
2023-04-12T03:01:20.497Z,10.95
2023-04-12T03:02:23.500Z,10.33
2023-04-12T03:03:26.158Z,10.18
2023-04-12T03:04:28.093Z,10.02
2023-04-12T03:05:29.958Z,10.27
2023-04-12T03:06:31.748Z,10.02
2023-04-12T03:07:33.500Z,11.10
2023-04-12T03:08:35.295Z,11.05
2023-04-12T03:09:37.032Z,10.82
2023-04-12T03:10:38.876Z,11.00
2023-04-12T03:11:40.667Z,11.02
2023-04-12T03:12:42.443Z,10.20
2023-04-12T03:13:44.184Z,10.68
2023-04-12T03:14:45.938Z,12.23
2023-04-12T03:15:48.168Z,11.55
2023-04-12T03:16:49.995Z,11.30
2023-04-12T03:17:51.828Z,10.82
2023-04-12T03:18:53.703Z,11.15
2023-04-12T03:19:55.651Z,10.65
2023-04-12T03:20:57.406Z,10.25
2023-04-12T03:21:59.430Z,11.55
2023-04-12T03:23:01.278Z,10.97
2023-04-12T03:24:03.103Z,11.60
2023-04-12T03:25:05.501Z,10.93
2023-04-12T03:26:07.598Z,10.73
2023-04-12T03:27:09.374Z,10.23
2023-04-12T03:28:11.183Z,11.70
2023-04-12T03:29:12.973Z,11.57
2023-04-12T03:30:14.871Z,11.35
2023-04-12T03:31:16.731Z,11.82
2023-04-12T03:32:18.537Z,13.13
2023-04-12T03:33:20.377Z,12.03
2023-04-12T03:34:22.141Z,12.57
2023-04-12T03:35:23.901Z,11.75
2023-04-12T03:36:25.672Z,12.40
2023-04-12T03:37:27.562Z,11.98
2023-04-12T03:38:29.354Z,10.98
2023-04-12T03:39:31.041Z,11.52
2023-04-12T03:40:32.798Z,12.38
2023-04-12T03:41:34.637Z,12.18
2023-04-12T03:42:36.556Z,11.85
2023-04-12T03:43:38.329Z,10.73
2023-04-12T03:44:40.077Z,10.93
2023-04-12T03:45:43.357Z,11.25
2023-04-12T03:46:45.520Z,11.80
2023-04-12T03:47:47.296Z,11.15
2023-04-12T03:48:49.925Z,11.50
2023-04-12T03:50:06.079Z,10.57
2023-04-12T03:51:12.595Z,9.20
2023-04-12T03:52:14.371Z,11.50
2023-04-12T03:53:16.133Z,10.90
2023-04-12T03:54:17.922Z,11.30
2023-04-12T03:55:19.767Z,10.88
2023-04-12T03:56:21.541Z,11.52
2023-04-12T03:57:23.319Z,10.48
2023-04-12T03:58:25.131Z,11.65
2023-04-12T03:59:26.864Z,11.07
2023-04-12T04:00:28.654Z,10.20
2023-04-12T04:01:30.515Z,11.65
2023-04-12T04:02:32.492Z,12.18
2023-04-12T04:03:34.610Z,10.73
2023-04-12T04:04:36.664Z,10.77
2023-04-12T04:05:39.049Z,10.82
2023-04-12T04:06:41.097Z,11.50
2023-04-12T04:07:42.875Z,13.45
2023-04-12T04:08:44.826Z,21.10
2023-04-12T04:09:46.791Z,15.48
2023-04-12T04:10:48.702Z,12.70
2023-04-12T04:11:50.484Z,11.75
2023-04-12T04:12:52.203Z,11.88
2023-04-12T04:13:53.980Z,17.88
2023-04-12T04:14:55.770Z,14.93
2023-04-12T04:16:04.358Z,11.50
2023-04-12T04:17:06.200Z,11.57
2023-04-12T04:18:07.951Z,12.60
2023-04-12T04:19:09.746Z,11.85
2023-04-12T04:20:11.884Z,12.20
2023-04-12T04:21:13.776Z,11.73
2023-04-12T04:22:15.607Z,11.68
2023-04-12T04:23:17.337Z,12.63
2023-04-12T04:24:19.101Z,10.77
2023-04-12T04:25:21.012Z,12.43
2023-04-12T04:26:22.758Z,11.55
2023-04-12T04:27:24.610Z,11.20
2023-04-12T04:28:26.629Z,11.38
2023-04-12T04:29:28.403Z,12.07
2023-04-12T04:30:30.125Z,14.85
2023-04-12T04:31:32.955Z,12.73
2023-04-12T04:32:34.745Z,16.35
2023-04-12T04:33:37.445Z,12.32
2023-04-12T04:34:39.239Z,14.05
2023-04-12T04:35:41.052Z,12.10
2023-04-12T04:36:43.213Z,11.88
2023-04-12T04:37:45.002Z,11.88
2023-04-12T04:38:46.773Z,12.60
2023-04-12T04:39:48.538Z,12.80
2023-04-12T04:40:53.031Z,12.52
2023-04-12T04:41:55.191Z,12.70
2023-04-12T04:42:57.003Z,13.98
2023-04-12T04:43:58.854Z,13.68
2023-04-12T04:45:00.823Z,11.30
2023-04-12T04:46:02.595Z,11.70
2023-04-12T04:47:04.783Z,12.45
2023-04-12T04:48:06.950Z,11.50
2023-04-12T04:49:08.869Z,11.48
2023-04-12T04:50:10.927Z,10.18
2023-04-12T04:51:12.650Z,11.75
2023-04-12T04:52:14.937Z,10.52
2023-04-12T04:53:19.623Z,11.18
2023-04-12T04:54:21.358Z,11.35
2023-04-12T04:55:23.168Z,11.68
2023-04-12T04:56:24.973Z,15.30
2023-04-12T04:57:26.815Z,12.18
2023-04-12T04:58:28.634Z,14.25
2023-04-12T04:59:30.322Z,12.23
2023-04-12T05:00:34.269Z,11.82
2023-04-12T05:01:36.171Z,10.48
2023-04-12T05:02:41.802Z,11.45
2023-04-12T05:03:44.219Z,10.52
2023-04-12T05:04:45.991Z,11.23
2023-04-12T05:05:49.511Z,11.40
2023-04-12T05:06:51.304Z,11.57
2023-04-12T05:07:53.106Z,9.70
2023-04-12T05:08:55.092Z,10.82
2023-04-12T05:09:57.013Z,10.70
2023-04-12T05:10:58.864Z,9.55
2023-04-12T05:12:00.924Z,10.00
2023-04-12T05:13:02.719Z,9.65
2023-04-12T05:14:04.740Z,9.45
2023-04-12T05:15:11.665Z,9.23
2023-04-12T05:16:14.034Z,9.55
2023-04-12T05:17:15.874Z,8.30
2023-04-12T05:18:17.632Z,9.25
2023-04-12T05:19:19.341Z,8.80
2023-04-12T05:20:21.102Z,8.27
2023-04-12T05:21:24.323Z,9.45
2023-04-12T05:22:26.477Z,9.00
2023-04-12T05:23:28.233Z,9.70
2023-04-12T05:24:30.177Z,9.63
2023-04-12T05:25:32.077Z,9.32
2023-04-12T05:26:33.846Z,8.85
2023-04-12T05:27:35.571Z,8.53
2023-04-12T05:28:37.474Z,8.52
2023-04-12T05:29:39.267Z,8.52
2023-04-12T05:30:41.111Z,7.63
2023-04-12T05:31:42.931Z,8.30
2023-04-12T05:32:44.698Z,7.55
2023-04-12T05:33:46.478Z,7.93
2023-04-12T05:34:48.194Z,7.13
2023-04-12T05:35:50.058Z,7.78
2023-04-12T05:36:51.890Z,7.18
2023-04-12T05:37:53.657Z,7.07
2023-04-12T05:38:55.646Z,6.82
2023-04-12T05:39:57.776Z,7.30
2023-04-12T05:40:59.482Z,7.28
2023-04-12T05:42:01.272Z,7.15
2023-04-12T05:43:03.146Z,8.95
2023-04-12T05:44:04.905Z,9.05
2023-04-12T05:45:07.059Z,8.98
2023-04-12T05:46:08.826Z,6.70
2023-04-12T05:47:10.726Z,6.13
2023-04-12T05:48:12.557Z,8.13
2023-04-12T05:49:14.494Z,7.53
2023-04-12T05:50:16.268Z,7.00
2023-04-12T05:51:22.898Z,11.35
2023-04-12T05:52:29.703Z,7.38
2023-04-12T05:53:31.425Z,6.90
2023-04-12T05:54:33.268Z,10.00
2023-04-12T05:55:37.306Z,10.95
2023-04-12T05:56:39.764Z,6.57
2023-04-12T05:57:41.480Z,9.30
2023-04-12T05:58:43.234Z,10.13
2023-04-12T05:59:44.986Z,6.00
2023-04-12T06:00:47.022Z,6.18
2023-04-12T06:01:49.100Z,4.65
2023-04-12T06:02:51.034Z,6.53
2023-04-12T06:03:52.898Z,6.55
2023-04-12T06:04:55.070Z,6.40
2023-04-12T06:05:56.977Z,5.57
2023-04-12T06:06:58.846Z,5.60
2023-04-12T06:08:00.704Z,6.43
2023-04-12T06:09:03.531Z,6.37
2023-04-12T06:10:06.727Z,5.80
2023-04-12T06:11:08.633Z,5.85
2023-04-12T06:12:10.470Z,5.95
2023-04-12T06:13:12.188Z,4.95
2023-04-12T06:14:14.058Z,5.95
2023-04-12T06:15:15.814Z,5.25
2023-04-12T06:16:18.681Z,5.18
2023-04-12T06:17:20.453Z,4.78
2023-04-12T06:18:22.381Z,5.13
2023-04-12T06:19:24.197Z,4.97
2023-04-12T06:20:26.090Z,4.32
2023-04-12T06:21:27.850Z,4.60
2023-04-12T06:22:29.581Z,4.28
2023-04-12T06:23:31.344Z,4.25
2023-04-12T06:24:33.042Z,3.90
2023-04-12T06:25:35.341Z,4.88
2023-04-12T06:26:40.029Z,4.45
2023-04-12T06:27:42.578Z,4.75
2023-04-12T06:28:44.331Z,3.97
2023-04-12T06:29:46.093Z,3.53
2023-04-12T06:30:47.834Z,4.97
2023-04-12T06:31:49.659Z,4.18
2023-04-12T06:32:51.493Z,6.85
2023-04-12T06:33:53.267Z,5.00
2023-04-12T06:34:55.061Z,5.10
2023-04-12T06:35:56.887Z,4.63
2023-04-12T06:36:58.630Z,3.88
2023-04-12T06:38:00.337Z,4.53
2023-04-12T06:39:02.030Z,3.90
2023-04-12T06:40:03.987Z,4.20
2023-04-12T06:41:06.709Z,4.15
2023-04-12T06:42:08.581Z,4.30
2023-04-12T06:43:10.426Z,4.25
2023-04-12T06:44:12.142Z,4.00
2023-04-12T06:45:13.842Z,3.95
2023-04-12T06:46:16.006Z,3.95
2023-04-12T06:47:17.888Z,4.03
2023-04-12T06:48:19.672Z,3.88
2023-04-12T06:49:21.427Z,4.40
2023-04-12T06:50:23.497Z,4.43
2023-04-12T06:51:25.225Z,3.92
2023-04-12T06:52:27.516Z,4.13
2023-04-12T06:53:29.248Z,4.13
2023-04-12T06:54:30.981Z,3.35
2023-04-12T06:55:32.848Z,3.85
2023-04-12T06:56:37.180Z,4.03
2023-04-12T06:57:39.017Z,3.65
2023-04-12T06:58:40.766Z,4.07
2023-04-12T06:59:42.443Z,3.55
2023-04-12T07:00:44.215Z,3.33
2023-04-12T07:01:46.029Z,3.60
2023-04-12T07:02:48.168Z,3.97
2023-04-12T07:03:50.096Z,2.90
2023-04-12T07:04:52.892Z,3.17
2023-04-12T07:05:55.660Z,2.70
2023-04-12T07:06:57.390Z,2.47
2023-04-12T07:07:59.128Z,3.25
2023-04-12T07:09:00.911Z,3.22
2023-04-12T07:10:02.665Z,3.30
2023-04-12T07:11:14.604Z,3.70
2023-04-12T07:12:22.253Z,3.45
2023-04-12T07:13:24.184Z,3.38
2023-04-12T07:14:26.272Z,3.38
2023-04-12T07:15:28.021Z,3.25
2023-04-12T07:16:30.618Z,3.30
2023-04-12T07:17:32.516Z,3.50
2023-04-12T07:18:34.307Z,3.75
2023-04-12T07:19:36.565Z,4.00
2023-04-12T07:20:38.337Z,3.70
2023-04-12T07:21:40.199Z,4.00
2023-04-12T07:22:42.080Z,3.05
2023-04-12T07:23:44.337Z,3.92
2023-04-12T07:24:46.388Z,3.90
2023-04-12T07:25:48.227Z,3.90
2023-04-12T07:26:50.291Z,3.63
2023-04-12T07:27:52.053Z,3.75
2023-04-12T07:28:53.765Z,5.47
2023-04-12T07:29:55.543Z,4.22
2023-04-12T07:30:57.303Z,5.40
2023-04-12T07:32:00.049Z,4.67
2023-04-12T07:33:12.448Z,4.78
2023-04-12T07:34:18.386Z,3.95
2023-04-12T07:35:20.283Z,3.78
2023-04-12T07:36:22.145Z,4.30
2023-04-12T07:37:23.998Z,3.67
2023-04-12T07:38:25.712Z,3.97
2023-04-12T07:39:27.445Z,3.38
2023-04-12T07:40:29.233Z,3.85
2023-04-12T07:41:31.062Z,3.10
2023-04-12T07:42:32.941Z,2.93
2023-04-12T07:43:34.679Z,3.80
2023-04-12T07:44:38.682Z,3.30
2023-04-12T07:45:40.770Z,3.47
2023-04-12T07:46:42.553Z,3.17
2023-04-12T07:47:44.391Z,3.65
2023-04-12T07:48:46.285Z,3.22
2023-04-12T07:49:48.066Z,2.58
2023-04-12T07:50:49.937Z,3.20
2023-04-12T07:51:51.712Z,2.80
2023-04-12T07:52:53.475Z,2.93
2023-04-12T07:53:55.471Z,3.28
2023-04-12T07:54:57.378Z,2.63
2023-04-12T07:55:59.119Z,2.40
2023-04-12T07:57:02.530Z,2.40
2023-04-12T07:58:04.259Z,1.60
2023-04-12T07:59:05.982Z,2.75
2023-04-12T08:00:08.523Z,2.83
2023-04-12T08:01:12.461Z,2.92
2023-04-12T08:02:14.409Z,2.85
2023-04-12T08:03:17.838Z,2.90
2023-04-12T08:04:19.950Z,2.53
2023-04-12T08:05:21.841Z,2.90
2023-04-12T08:06:23.930Z,2.65
2023-04-12T08:07:25.752Z,2.60
2023-04-12T08:08:27.512Z,2.80
2023-04-12T08:09:29.274Z,2.40
2023-04-12T08:10:31.174Z,2.90
2023-04-12T08:11:33.329Z,2.75
2023-04-12T08:12:35.065Z,2.40
2023-04-12T08:13:36.909Z,2.53
2023-04-12T08:14:39.825Z,2.20
2023-04-12T08:15:42.739Z,2.58
2023-04-12T08:16:44.573Z,2.03
2023-04-12T08:17:46.342Z,2.33
2023-04-12T08:18:48.170Z,2.30
2023-04-12T08:19:49.976Z,2.30
2023-04-12T08:20:51.739Z,2.08
2023-04-12T08:21:53.719Z,2.30
2023-04-12T08:22:55.570Z,2.30
2023-04-12T08:23:57.578Z,2.57
2023-04-12T08:24:59.550Z,3.03
2023-04-12T08:26:01.295Z,2.53
2023-04-12T08:27:03.083Z,2.30
2023-04-12T08:28:05.053Z,2.03
2023-04-12T08:29:06.865Z,2.28
2023-04-12T08:30:09.336Z,1.85
2023-04-12T08:31:11.233Z,1.83
2023-04-12T08:32:13.077Z,1.70
2023-04-12T08:33:14.864Z,1.27
2023-04-12T08:34:16.626Z,2.10
2023-04-12T08:35:18.545Z,1.98
2023-04-12T08:36:20.270Z,2.08
2023-04-12T08:37:22.032Z,2.00
2023-04-12T08:38:33.901Z,2.17
2023-04-12T08:39:39.403Z,2.03
2023-04-12T08:40:42.964Z,2.03
2023-04-12T08:41:45.447Z,1.48
2023-04-12T08:42:47.492Z,1.90
2023-04-12T08:43:49.701Z,1.88
2023-04-12T08:44:51.545Z,1.50
2023-04-12T08:45:54.927Z,1.90
2023-04-12T08:46:56.926Z,2.17
2023-04-12T08:47:59.715Z,3.05
2023-04-12T08:49:01.594Z,3.33
2023-04-12T08:50:04.442Z,2.13
2023-04-12T08:51:07.281Z,1.90
2023-04-12T08:52:10.429Z,1.80
2023-04-12T08:53:12.245Z,1.73
2023-04-12T08:54:14.032Z,2.28
2023-04-12T08:55:15.780Z,1.73
2023-04-12T08:56:17.647Z,1.77
2023-04-12T08:57:19.998Z,2.10
2023-04-12T08:58:23.441Z,2.13
2023-04-12T08:59:28.001Z,1.83
2023-04-12T09:00:29.829Z,1.73
2023-04-12T09:01:31.622Z,2.05
2023-04-12T09:02:36.259Z,1.67
2023-04-12T09:03:38.348Z,1.73
2023-04-12T09:04:50.490Z,1.63
2023-04-12T09:05:52.398Z,1.80
2023-04-12T09:06:54.163Z,1.85
2023-04-12T09:07:56.500Z,1.60
2023-04-12T09:08:58.951Z,1.83
2023-04-12T09:10:00.753Z,1.85
2023-04-12T09:11:03.147Z,1.98
2023-04-12T09:12:08.669Z,1.73
2023-04-12T09:13:10.396Z,1.55
2023-04-12T09:14:23.235Z,1.65
2023-04-12T09:15:24.997Z,2.60
2023-04-12T09:16:35.776Z,2.77
2023-04-12T09:17:38.118Z,1.80
2023-04-12T09:18:51.749Z,1.50
2023-04-12T09:19:54.409Z,1.70
2023-04-12T09:21:10.237Z,1.60
2023-04-12T09:22:12.053Z,1.08
2023-04-12T09:23:22.050Z,1.38
2023-04-12T09:24:23.980Z,1.30
2023-04-12T09:25:40.497Z,1.45
2023-04-12T09:26:42.468Z,1.15
2023-04-12T09:27:48.696Z,1.27
2023-04-12T09:28:50.439Z,1.35
2023-04-12T09:29:52.251Z,1.73
2023-04-12T09:30:55.397Z,1.30
2023-04-12T09:32:04.511Z,1.27
2023-04-12T09:33:12.860Z,0.95
2023-04-12T09:34:14.672Z,1.10
2023-04-12T09:35:16.589Z,1.17
2023-04-12T09:36:18.515Z,1.40
2023-04-12T09:37:20.347Z,1.10
2023-04-12T09:38:22.074Z,1.37
2023-04-12T09:39:34.564Z,1.00
2023-04-12T09:40:37.223Z,1.10
2023-04-12T09:41:39.078Z,1.10
2023-04-12T09:42:54.034Z,0.95
2023-04-12T09:43:56.130Z,0.90
2023-04-12T09:44:58.453Z,1.10
2023-04-12T09:46:10.920Z,1.50
2023-04-12T09:47:13.083Z,1.40
2023-04-12T09:48:20.192Z,1.08
2023-04-12T09:49:39.387Z,1.40
2023-04-12T09:50:41.225Z,1.08
2023-04-12T09:51:43.020Z,1.20
2023-04-12T09:52:44.746Z,1.40
2023-04-12T09:53:48.789Z,3.05
2023-04-12T09:54:51.852Z,1.88
2023-04-12T09:55:55.103Z,1.40
2023-04-12T09:56:57.602Z,1.05
2023-04-12T09:58:03.384Z,0.93
2023-04-12T09:59:06.827Z,1.33
2023-04-12T10:00:10.447Z,1.37
2023-04-12T10:01:12.611Z,0.80
2023-04-12T10:02:18.685Z,0.98
2023-04-12T10:03:20.672Z,1.05
2023-04-12T10:04:23.031Z,1.02
2023-04-12T10:05:26.647Z,1.13
2023-04-12T10:06:29.850Z,0.80
2023-04-12T10:07:31.647Z,0.90
2023-04-12T10:08:33.711Z,1.25
2023-04-12T10:09:38.953Z,1.00
2023-04-12T10:10:40.825Z,1.20
2023-04-12T10:11:45.454Z,1.65
2023-04-12T10:12:48.975Z,1.80
2023-04-12T10:13:52.501Z,1.20
2023-04-12T10:14:56.064Z,0.80
2023-04-12T10:15:58.501Z,0.95
2023-04-12T10:17:02.456Z,1.00
2023-04-12T10:18:05.125Z,0.82
2023-04-12T10:19:07.648Z,0.85
2023-04-12T10:20:09.921Z,0.70
2023-04-12T10:21:11.997Z,0.70
2023-04-12T10:22:13.734Z,0.80
2023-04-12T10:23:16.450Z,0.77
2023-04-12T10:24:18.719Z,0.70
2023-04-12T10:25:22.389Z,0.85
2023-04-12T10:26:24.356Z,0.70
2023-04-12T10:27:27.388Z,0.80
2023-04-12T10:28:29.237Z,0.90
2023-04-12T10:29:32.776Z,0.70
2023-04-12T10:30:34.568Z,0.85
2023-04-12T10:31:36.423Z,0.63
2023-04-12T10:32:38.339Z,0.82
2023-04-12T10:33:40.282Z,0.70
2023-04-12T10:34:43.319Z,0.50
2023-04-12T10:36:00.028Z,0.70
2023-04-12T10:37:02.106Z,0.47
2023-04-12T10:38:04.691Z,0.73
2023-04-12T10:39:10.469Z,1.40
2023-04-12T10:40:18.375Z,0.50
2023-04-12T10:41:21.752Z,0.52
2023-04-12T10:42:27.548Z,1.50
2023-04-12T10:43:29.433Z,0.80
2023-04-12T10:44:31.221Z,0.73
2023-04-12T10:45:32.947Z,0.73
2023-04-12T10:46:40.747Z,0.70
2023-04-12T10:47:48.527Z,0.77
2023-04-12T10:48:53.780Z,1.30
2023-04-12T10:50:21.919Z,1.27
2023-04-12T10:51:26.549Z,1.13
2023-04-12T10:52:28.405Z,0.60
2023-04-12T10:53:30.179Z,0.87
2023-04-12T10:54:33.791Z,0.80
2023-04-12T10:55:35.761Z,0.90
2023-04-12T10:56:46.988Z,0.80
2023-04-12T10:57:48.796Z,0.80
2023-04-12T10:58:51.460Z,0.70
2023-04-12T10:59:54.694Z,0.80
2023-04-12T11:00:56.579Z,0.70
2023-04-12T11:02:04.851Z,1.25
2023-04-12T11:03:08.743Z,0.90
2023-04-12T11:04:22.984Z,1.03
2023-04-12T11:05:25.670Z,0.80
2023-04-12T11:06:52.951Z,5.47
2023-04-12T11:07:55.405Z,0.93
2023-04-12T11:08:57.335Z,0.60
2023-04-12T11:10:00.926Z,0.90
2023-04-12T11:11:03.792Z,0.88
2023-04-12T11:12:05.962Z,0.70
2023-04-12T11:13:09.596Z,0.60
2023-04-12T11:14:11.624Z,0.60
2023-04-12T11:15:13.537Z,0.77
2023-04-12T11:16:15.519Z,0.88
2023-04-12T11:17:17.400Z,0.90
2023-04-12T11:18:19.458Z,0.70
2023-04-12T11:19:21.318Z,1.00
2023-04-12T11:20:23.516Z,0.73
2023-04-12T11:21:25.899Z,0.93
2023-04-12T11:22:32.786Z,0.93
2023-04-12T11:23:34.580Z,1.23
2023-04-12T11:24:40.504Z,0.57
2023-04-12T11:25:42.401Z,0.70
2023-04-12T11:26:45.233Z,0.70
2023-04-12T11:27:52.070Z,0.60
2023-04-12T11:28:54.005Z,1.00
2023-04-12T11:29:58.547Z,0.80
2023-04-12T11:31:00.371Z,0.60
2023-04-12T11:32:11.263Z,0.60
2023-04-12T11:33:30.724Z,0.68
2023-04-12T11:34:36.706Z,0.60
2023-04-12T11:35:38.617Z,0.60
2023-04-12T11:36:41.419Z,0.80
2023-04-12T11:37:44.617Z,0.75
2023-04-12T11:38:47.376Z,0.90
2023-04-12T11:39:52.771Z,0.90
2023-04-12T11:40:54.903Z,0.80
2023-04-12T11:41:56.844Z,0.65
2023-04-12T11:42:58.878Z,0.57
2023-04-12T11:44:00.729Z,0.85
2023-04-12T11:45:09.333Z,1.02
2023-04-12T11:46:15.967Z,1.00
2023-04-12T11:47:22.195Z,4.63
2023-04-12T11:48:24.521Z,0.85
2023-04-12T11:49:26.308Z,0.70
2023-04-12T11:50:29.749Z,0.70
2023-04-12T11:51:32.625Z,1.00
2023-04-12T11:52:35.099Z,0.68
2023-04-12T11:53:36.866Z,0.60
2023-04-12T11:54:42.351Z,0.65
2023-04-12T11:55:50.614Z,0.80
2023-04-12T11:56:52.430Z,0.70
2023-04-12T11:57:54.195Z,0.70
2023-04-12T11:58:55.975Z,0.68
2023-04-12T11:59:59.066Z,0.70
2023-04-12T12:01:01.081Z,0.80
2023-04-12T12:02:10.877Z,0.60
2023-04-12T12:03:23.765Z,0.70
2023-04-12T12:04:26.831Z,0.77
2023-04-12T12:05:29.095Z,0.68
2023-04-12T12:06:31.785Z,0.70
2023-04-12T12:07:34.152Z,0.70
2023-04-12T12:08:37.112Z,0.73
2023-04-12T12:09:40.532Z,0.75
2023-04-12T12:10:59.771Z,1.10
2023-04-12T12:12:04.469Z,0.73
2023-04-12T12:13:13.541Z,0.52
2023-04-12T12:14:22.889Z,0.80
2023-04-12T12:15:24.749Z,0.90
2023-04-12T12:16:29.471Z,0.88
2023-04-12T12:17:36.791Z,0.88
2023-04-12T12:18:42.733Z,0.68
2023-04-12T12:19:46.183Z,0.80
2023-04-12T12:20:50.202Z,0.70
2023-04-12T12:21:51.992Z,1.02
2023-04-12T12:22:53.913Z,3.88
2023-04-12T12:23:57.123Z,0.73
2023-04-12T12:25:00.493Z,0.68
2023-04-12T12:26:17.923Z,1.35
2023-04-12T12:27:33.179Z,1.88
2023-04-12T12:28:39.447Z,1.10
2023-04-12T12:29:41.296Z,4.13
2023-04-12T12:30:43.147Z,2.33
2023-04-12T12:31:47.898Z,0.85
2023-04-12T12:32:50.954Z,0.60
2023-04-12T12:33:59.826Z,0.65
2023-04-12T12:35:01.897Z,0.60
2023-04-12T12:36:03.957Z,0.70
2023-04-12T12:37:08.908Z,0.80
2023-04-12T12:38:10.706Z,0.90
2023-04-12T12:39:13.111Z,0.88
2023-04-12T12:40:15.048Z,0.73
2023-04-12T12:41:17.937Z,0.63
2023-04-12T12:42:19.864Z,0.60
2023-04-12T12:43:21.666Z,0.75
2023-04-12T12:44:26.259Z,0.60
2023-04-12T12:45:29.874Z,0.60
2023-04-12T12:46:44.638Z,0.63
2023-04-12T12:48:01.849Z,0.70
2023-04-12T12:49:03.827Z,0.90
2023-04-12T12:50:05.846Z,0.60
2023-04-12T12:51:09.156Z,0.88
2023-04-12T12:52:11.057Z,0.63
2023-04-12T12:53:12.939Z,0.73
2023-04-12T12:54:28.411Z,1.10
2023-04-12T12:55:38.631Z,0.70
2023-04-12T12:56:40.343Z,0.82
2023-04-12T12:57:55.171Z,0.63
2023-04-12T12:59:07.562Z,0.80
2023-04-12T13:00:10.206Z,0.70
2023-04-12T13:01:11.994Z,0.70
2023-04-12T13:02:13.867Z,0.52
2023-04-12T13:03:16.141Z,0.80
2023-04-12T13:04:18.302Z,0.70
2023-04-12T13:05:21.468Z,0.70
2023-04-12T13:06:23.470Z,0.73
2023-04-12T13:07:25.169Z,0.68
2023-04-12T13:08:27.528Z,1.40
2023-04-12T13:09:29.328Z,0.80
2023-04-12T13:10:31.116Z,0.80
2023-04-12T13:11:32.840Z,0.60
2023-04-12T13:12:35.305Z,0.85
2023-04-12T13:13:37.046Z,0.80
2023-04-12T13:14:39.408Z,0.73
2023-04-12T13:15:41.374Z,0.80
2023-04-12T13:16:43.175Z,0.90
2023-04-12T13:17:44.987Z,0.95
2023-04-12T13:18:46.724Z,0.85
2023-04-12T13:19:48.991Z,1.08
2023-04-12T13:20:50.708Z,0.93
2023-04-12T13:21:53.311Z,1.00
2023-04-12T13:22:55.139Z,0.75
2023-04-12T13:23:56.863Z,0.90
2023-04-12T13:24:58.570Z,1.00
2023-04-12T13:26:00.319Z,0.65
2023-04-12T13:27:02.269Z,0.90
2023-04-12T13:28:04.132Z,0.82
2023-04-12T13:29:05.887Z,0.70
2023-04-12T13:30:08.201Z,0.65
2023-04-12T13:31:10.051Z,0.90
2023-04-12T13:32:11.920Z,1.00
2023-04-12T13:33:17.242Z,0.60
2023-04-12T13:34:21.601Z,0.80
2023-04-12T13:35:23.492Z,0.80
2023-04-12T13:36:25.220Z,0.93
2023-04-12T13:37:27.097Z,1.00
2023-04-12T13:38:28.813Z,0.93
2023-04-12T13:39:33.066Z,0.80
2023-04-12T13:40:35.509Z,0.90
2023-04-12T13:41:37.283Z,0.80
2023-04-12T13:42:39.257Z,0.82
2023-04-12T13:43:41.354Z,0.80
2023-04-12T13:44:43.080Z,0.90
2023-04-12T13:45:44.889Z,0.68
2023-04-12T13:46:46.665Z,1.05
2023-04-12T13:47:48.573Z,0.90
2023-04-12T13:48:50.349Z,0.80
2023-04-12T13:49:52.069Z,1.00
2023-04-12T13:50:55.556Z,1.00
2023-04-12T13:51:57.493Z,2.03
2023-04-12T13:52:59.237Z,1.10
2023-04-12T13:54:01.414Z,2.65
2023-04-12T13:55:03.185Z,5.13
2023-04-12T13:56:05.186Z,2.75
2023-04-12T13:57:07.040Z,1.25
2023-04-12T13:58:08.834Z,0.80
2023-04-12T13:59:10.598Z,3.80